sensor_id;sensor_type;location;lat;lon;timestamp;pressure;altitude;pressure_sealevel;temperature;humidity
39243;BME280;29823;47.404;8.566;2023-04-03T00:01:10;96835.53;;;7.82;100.00
39243;BME280;29823;47.404;8.566;2023-04-03T00:03:38;96825.50;;;7.65;100.00
39243;BME280;29823;47.404;8.566;2023-04-03T00:06:08;96821.63;;;7.67;100.00
39243;BME280;29823;47.404;8.566;2023-04-03T00:08:38;96826.94;;;7.48;100.00
39243;BME280;29823;47.404;8.566;2023-04-03T00:11:08;96830.66;;;7.53;100.00
39243;BME280;29823;47.404;8.566;2023-04-03T00:13:37;96828.19;;;7.45;100.00
39243;BME280;29823;47.404;8.566;2023-04-03T00:16:06;96831.47;;;7.41;100.00
39243;BME280;29823;47.404;8.566;2023-04-03T00:18:35;96840.47;;;7.46;100.00
39243;BME280;29823;47.404;8.566;2023-04-03T00:21:04;96827.34;;;7.32;100.00
39243;BME280;29823;47.404;8.566;2023-04-03T00:23:32;96817.56;;;7.39;100.00
39243;BME280;29823;47.404;8.566;2023-04-03T00:26:01;96813.03;;;7.26;100.00
39243;BME280;29823;47.404;8.566;2023-04-03T00:28:29;96829.00;;;7.26;100.00
39243;BME280;29823;47.404;8.566;2023-04-03T00:30:58;96829.00;;;7.52;100.00
39243;BME280;29823;47.404;8.566;2023-04-03T00:33:26;96827.38;;;7.45;100.00
39243;BME280;29823;47.404;8.566;2023-04-03T00:35:54;96830.00;;;7.51;100.00
39243;BME280;29823;47.404;8.566;2023-04-03T00:38:22;96824.50;;;7.20;100.00
39243;BME280;29823;47.404;8.566;2023-04-03T00:40:50;96840.03;;;7.30;100.00
39243;BME280;29823;47.404;8.566;2023-04-03T00:43:19;96841.06;;;7.35;100.00
39243;BME280;29823;47.404;8.566;2023-04-03T00:45:49;96829.78;;;7.01;100.00
39243;BME280;29823;47.404;8.566;2023-04-03T00:48:21;96825.91;;;7.16;100.00
39243;BME280;29823;47.404;8.566;2023-04-03T00:50:50;96831.47;;;7.28;100.00
39243;BME280;29823;47.404;8.566;2023-04-03T00:53:21;96826.13;;;7.21;100.00
39243;BME280;29823;47.404;8.566;2023-04-03T00:55:50;96841.69;;;7.37;100.00
39243;BME280;29823;47.404;8.566;2023-04-03T00:58:20;96832.25;;;7.15;100.00
39243;BME280;29823;47.404;8.566;2023-04-03T01:00:55;96833.44;;;7.06;100.00
39243;BME280;29823;47.404;8.566;2023-04-03T01:03:27;96831.63;;;7.07;100.00
39243;BME280;29823;47.404;8.566;2023-04-03T01:05:54;96843.47;;;7.04;100.00
39243;BME280;29823;47.404;8.566;2023-04-03T01:08:23;96829.66;;;6.68;100.00
39243;BME280;29823;47.404;8.566;2023-04-03T01:10:50;96841.94;;;6.69;100.00
39243;BME280;29823;47.404;8.566;2023-04-03T01:13:24;96849.31;;;6.74;100.00
39243;BME280;29823;47.404;8.566;2023-04-03T01:15:53;96843.03;;;6.41;100.00
39243;BME280;29823;47.404;8.566;2023-04-03T01:18:21;96845.94;;;6.52;100.00
39243;BME280;29823;47.404;8.566;2023-04-03T01:21:08;96836.13;;;6.46;100.00
39243;BME280;29823;47.404;8.566;2023-04-03T01:23:49;96833.25;;;6.41;100.00
39243;BME280;29823;47.404;8.566;2023-04-03T01:26:20;96846.19;;;6.57;100.00
39243;BME280;29823;47.404;8.566;2023-04-03T01:28:48;96858.22;;;6.53;100.00
39243;BME280;29823;47.404;8.566;2023-04-03T01:31:22;96851.22;;;6.46;100.00
39243;BME280;29823;47.404;8.566;2023-04-03T01:33:54;96852.75;;;6.27;100.00
39243;BME280;29823;47.404;8.566;2023-04-03T01:36:24;96854.75;;;6.19;100.00
39243;BME280;29823;47.404;8.566;2023-04-03T01:38:53;96856.53;;;6.05;100.00
39243;BME280;29823;47.404;8.566;2023-04-03T01:41:21;96858.56;;;6.03;100.00
39243;BME280;29823;47.404;8.566;2023-04-03T01:43:49;96861.50;;;5.87;100.00
39243;BME280;29823;47.404;8.566;2023-04-03T01:46:18;96848.25;;;5.87;100.00
39243;BME280;29823;47.404;8.566;2023-04-03T01:48:46;96851.75;;;5.94;100.00
39243;BME280;29823;47.404;8.566;2023-04-03T01:51:16;96863.28;;;6.08;100.00
39243;BME280;29823;47.404;8.566;2023-04-03T01:53:44;96854.63;;;5.93;100.00
39243;BME280;29823;47.404;8.566;2023-04-03T01:56:11;96864.16;;;5.87;100.00
39243;BME280;29823;47.404;8.566;2023-04-03T01:58:39;96871.88;;;6.10;100.00
39243;BME280;29823;47.404;8.566;2023-04-03T02:01:07;96871.34;;;5.93;100.00
39243;BME280;29823;47.404;8.566;2023-04-03T02:03:35;96865.63;;;5.90;100.00
39243;BME280;29823;47.404;8.566;2023-04-03T02:06:03;96866.31;;;5.77;100.00
39243;BME280;29823;47.404;8.566;2023-04-03T02:08:33;96873.22;;;5.72;100.00
39243;BME280;29823;47.404;8.566;2023-04-03T02:11:01;96876.06;;;5.70;100.00
39243;BME280;29823;47.404;8.566;2023-04-03T02:13:29;96879.56;;;5.77;100.00
39243;BME280;29823;47.404;8.566;2023-04-03T02:15:56;96876.91;;;5.77;100.00
39243;BME280;29823;47.404;8.566;2023-04-03T02:18:25;96870.75;;;5.70;100.00
39243;BME280;29823;47.404;8.566;2023-04-03T02:20:53;96857.59;;;5.62;100.00
39243;BME280;29823;47.404;8.566;2023-04-03T02:23:21;96870.34;;;5.46;100.00
39243;BME280;29823;47.404;8.566;2023-04-03T02:25:50;96873.97;;;5.66;100.00
39243;BME280;29823;47.404;8.566;2023-04-03T02:28:18;96866.75;;;5.60;100.00
39243;BME280;29823;47.404;8.566;2023-04-03T02:30:46;96871.44;;;5.58;100.00
39243;BME280;29823;47.404;8.566;2023-04-03T02:33:14;96864.31;;;5.58;100.00
39243;BME280;29823;47.404;8.566;2023-04-03T02:35:41;96873.59;;;5.69;100.00
39243;BME280;29823;47.404;8.566;2023-04-03T02:38:09;96876.06;;;5.70;100.00
39243;BME280;29823;47.404;8.566;2023-04-03T02:40:37;96870.63;;;5.57;100.00
39243;BME280;29823;47.404;8.566;2023-04-03T02:43:06;96873.06;;;5.52;100.00
39243;BME280;29823;47.404;8.566;2023-04-03T02:45:34;96867.41;;;5.62;100.00
39243;BME280;29823;47.404;8.566;2023-04-03T02:48:04;96873.53;;;5.62;100.00
39243;BME280;29823;47.404;8.566;2023-04-03T02:50:32;96880.00;;;5.53;100.00
39243;BME280;29823;47.404;8.566;2023-04-03T02:53:00;96869.16;;;5.27;100.00
39243;BME280;29823;47.404;8.566;2023-04-03T02:55:28;96870.78;;;5.49;100.00
39243;BME280;29823;47.404;8.566;2023-04-03T02:57:56;96869.56;;;5.52;100.00
39243;BME280;29823;47.404;8.566;2023-04-03T03:00:25;96867.09;;;5.50;100.00
39243;BME280;29823;47.404;8.566;2023-04-03T03:02:53;96872.91;;;5.39;100.00
39243;BME280;29823;47.404;8.566;2023-04-03T03:05:21;96876.69;;;5.51;100.00
39243;BME280;29823;47.404;8.566;2023-04-03T03:07:49;96877.47;;;5.45;100.00
39243;BME280;29823;47.404;8.566;2023-04-03T03:10:17;96870.41;;;5.52;100.00
39243;BME280;29823;47.404;8.566;2023-04-03T03:12:45;96865.72;;;5.33;100.00
39243;BME280;29823;47.404;8.566;2023-04-03T03:15:13;96873.50;;;5.56;100.00
39243;BME280;29823;47.404;8.566;2023-04-03T03:17:43;96882.25;;;5.56;100.00
39243;BME280;29823;47.404;8.566;2023-04-03T03:20:12;96878.72;;;5.28;100.00
39243;BME280;29823;47.404;8.566;2023-04-03T03:22:41;96882.06;;;5.37;100.00
39243;BME280;29823;47.404;8.566;2023-04-03T03:25:08;96883.09;;;5.15;100.00
39243;BME280;29823;47.404;8.566;2023-04-03T03:27:36;96871.66;;;4.93;100.00
39243;BME280;29823;47.404;8.566;2023-04-03T03:30:06;96880.50;;;5.21;100.00
39243;BME280;29823;47.404;8.566;2023-04-03T03:32:34;96870.91;;;5.20;100.00
39243;BME280;29823;47.404;8.566;2023-04-03T03:35:04;96870.78;;;5.07;100.00
39243;BME280;29823;47.404;8.566;2023-04-03T03:37:32;96878.28;;;5.04;100.00
39243;BME280;29823;47.404;8.566;2023-04-03T03:39:59;96875.72;;;5.10;100.00
39243;BME280;29823;47.404;8.566;2023-04-03T03:42:27;96867.69;;;5.04;100.00
39243;BME280;29823;47.404;8.566;2023-04-03T03:44:55;96882.91;;;5.16;100.00
39243;BME280;29823;47.404;8.566;2023-04-03T03:47:23;96889.41;;;5.14;100.00
39243;BME280;29823;47.404;8.566;2023-04-03T03:49:52;96876.38;;;4.98;100.00
39243;BME280;29823;47.404;8.566;2023-04-03T03:52:21;96877.44;;;5.03;100.00
39243;BME280;29823;47.404;8.566;2023-04-03T03:54:49;96883.75;;;5.02;100.00
39243;BME280;29823;47.404;8.566;2023-04-03T03:57:17;96884.41;;;5.04;100.00
39243;BME280;29823;47.404;8.566;2023-04-03T03:59:45;96884.78;;;5.01;100.00
39243;BME280;29823;47.404;8.566;2023-04-03T04:02:14;96888.66;;;4.84;100.00
39243;BME280;29823;47.404;8.566;2023-04-03T04:04:42;96888.13;;;4.74;100.00
39243;BME280;29823;47.404;8.566;2023-04-03T04:07:11;96902.19;;;4.89;100.00
39243;BME280;29823;47.404;8.566;2023-04-03T04:09:40;96902.94;;;4.83;100.00
39243;BME280;29823;47.404;8.566;2023-04-03T04:12:08;96896.44;;;4.86;100.00
39243;BME280;29823;47.404;8.566;2023-04-03T04:14:36;96890.97;;;4.73;100.00
39243;BME280;29823;47.404;8.566;2023-04-03T04:17:05;96891.81;;;4.73;100.00
39243;BME280;29823;47.404;8.566;2023-04-03T04:19:33;96892.38;;;4.69;100.00
39243;BME280;29823;47.404;8.566;2023-04-03T04:22:00;96887.72;;;4.56;100.00
39243;BME280;29823;47.404;8.566;2023-04-03T04:24:28;96893.28;;;4.61;100.00
39243;BME280;29823;47.404;8.566;2023-04-03T04:26:57;96900.31;;;4.54;100.00
39243;BME280;29823;47.404;8.566;2023-04-03T04:29:25;96892.75;;;4.51;100.00
39243;BME280;29823;47.404;8.566;2023-04-03T04:31:53;96895.28;;;4.59;100.00
39243;BME280;29823;47.404;8.566;2023-04-03T04:34:21;96899.03;;;4.65;100.00
39243;BME280;29823;47.404;8.566;2023-04-03T04:36:49;96899.09;;;4.71;100.00
39243;BME280;29823;47.404;8.566;2023-04-03T04:39:17;96903.94;;;4.68;100.00
39243;BME280;29823;47.404;8.566;2023-04-03T04:41:45;96898.28;;;4.71;100.00
39243;BME280;29823;47.404;8.566;2023-04-03T04:44:14;96909.31;;;4.74;100.00
39243;BME280;29823;47.404;8.566;2023-04-03T04:46:42;96906.97;;;4.65;100.00
39243;BME280;29823;47.404;8.566;2023-04-03T04:49:10;96906.06;;;4.72;100.00
39243;BME280;29823;47.404;8.566;2023-04-03T04:51:37;96902.41;;;4.44;100.00
39243;BME280;29823;47.404;8.566;2023-04-03T04:54:17;96900.31;;;4.40;100.00
39243;BME280;29823;47.404;8.566;2023-04-03T04:56:45;96904.34;;;4.50;100.00
39243;BME280;29823;47.404;8.566;2023-04-03T04:59:14;96902.56;;;4.72;100.00
39243;BME280;29823;47.404;8.566;2023-04-03T05:01:44;96905.53;;;4.33;100.00
39243;BME280;29823;47.404;8.566;2023-04-03T05:04:12;96910.28;;;4.23;100.00
39243;BME280;29823;47.404;8.566;2023-04-03T05:06:40;96919.41;;;4.21;100.00
39243;BME280;29823;47.404;8.566;2023-04-03T05:09:08;96918.59;;;4.35;100.00
39243;BME280;29823;47.404;8.566;2023-04-03T05:11:37;96898.97;;;4.29;100.00
39243;BME280;29823;47.404;8.566;2023-04-03T05:14:05;96917.28;;;4.31;100.00
39243;BME280;29823;47.404;8.566;2023-04-03T05:16:34;96916.88;;;4.42;100.00
39243;BME280;29823;47.404;8.566;2023-04-03T05:19:02;96926.78;;;4.54;100.00
39243;BME280;29823;47.404;8.566;2023-04-03T05:21:31;96932.19;;;4.46;100.00
39243;BME280;29823;47.404;8.566;2023-04-03T05:23:59;96937.47;;;4.46;100.00
39243;BME280;29823;47.404;8.566;2023-04-03T05:26:29;96938.47;;;4.31;100.00
39243;BME280;29823;47.404;8.566;2023-04-03T05:28:57;96931.94;;;4.91;100.00
39243;BME280;29823;47.404;8.566;2023-04-03T05:31:25;96942.19;;;4.94;100.00
39243;BME280;29823;47.404;8.566;2023-04-03T05:33:57;96939.09;;;4.76;100.00
39243;BME280;29823;47.404;8.566;2023-04-03T05:36:25;96945.22;;;4.77;100.00
39243;BME280;29823;47.404;8.566;2023-04-03T05:38:53;96949.59;;;4.84;100.00
39243;BME280;29823;47.404;8.566;2023-04-03T05:41:23;96959.66;;;4.74;100.00
39243;BME280;29823;47.404;8.566;2023-04-03T05:43:51;96943.03;;;4.66;100.00
39243;BME280;29823;47.404;8.566;2023-04-03T05:46:19;96947.16;;;4.39;100.00
39243;BME280;29823;47.404;8.566;2023-04-03T05:48:48;96953.28;;;4.25;100.00
39243;BME280;29823;47.404;8.566;2023-04-03T05:51:20;96953.91;;;4.27;100.00
39243;BME280;29823;47.404;8.566;2023-04-03T05:53:52;96954.34;;;4.31;100.00
39243;BME280;29823;47.404;8.566;2023-04-03T05:56:22;96955.75;;;4.41;100.00
39243;BME280;29823;47.404;8.566;2023-04-03T05:58:50;96956.09;;;4.38;100.00
39243;BME280;29823;47.404;8.566;2023-04-03T06:01:18;96956.38;;;4.43;100.00
39243;BME280;29823;47.404;8.566;2023-04-03T06:03:46;96962.84;;;4.26;100.00
39243;BME280;29823;47.404;8.566;2023-04-03T06:06:14;96951.53;;;4.32;100.00
39243;BME280;29823;47.404;8.566;2023-04-03T06:08:43;96964.41;;;4.50;100.00
39243;BME280;29823;47.404;8.566;2023-04-03T06:11:12;96971.97;;;4.38;100.00
39243;BME280;29823;47.404;8.566;2023-04-03T06:13:40;96967.78;;;4.29;100.00
39243;BME280;29823;47.404;8.566;2023-04-03T06:16:09;96971.91;;;4.46;100.00
39243;BME280;29823;47.404;8.566;2023-04-03T06:18:37;96973.66;;;4.39;100.00
39243;BME280;29823;47.404;8.566;2023-04-03T06:21:05;96974.16;;;4.35;100.00
39243;BME280;29823;47.404;8.566;2023-04-03T06:23:34;96983.50;;;4.45;100.00
39243;BME280;29823;47.404;8.566;2023-04-03T06:26:03;96973.25;;;4.42;100.00
39243;BME280;29823;47.404;8.566;2023-04-03T06:28:32;96972.19;;;4.51;100.00
39243;BME280;29823;47.404;8.566;2023-04-03T06:31:00;96972.06;;;4.45;100.00
39243;BME280;29823;47.404;8.566;2023-04-03T06:33:27;96979.28;;;4.36;100.00
39243;BME280;29823;47.404;8.566;2023-04-03T06:35:57;96968.88;;;4.49;100.00
39243;BME280;29823;47.404;8.566;2023-04-03T06:38:25;96971.63;;;4.56;100.00
39243;BME280;29823;47.404;8.566;2023-04-03T06:40:53;96962.59;;;4.65;100.00
39243;BME280;29823;47.404;8.566;2023-04-03T06:43:22;96962.75;;;4.78;100.00
39243;BME280;29823;47.404;8.566;2023-04-03T06:45:50;96962.22;;;4.82;100.00
39243;BME280;29823;47.404;8.566;2023-04-03T06:48:18;96965.97;;;4.73;100.00
39243;BME280;29823;47.404;8.566;2023-04-03T06:50:47;96962.09;;;4.90;100.00
39243;BME280;29823;47.404;8.566;2023-04-03T06:53:15;96969.03;;;4.91;100.00
39243;BME280;29823;47.404;8.566;2023-04-03T06:55:43;96956.38;;;4.58;100.00
39243;BME280;29823;47.404;8.566;2023-04-03T06:58:11;96965.31;;;4.71;100.00
39243;BME280;29823;47.404;8.566;2023-04-03T07:00:41;96968.13;;;4.84;100.00
39243;BME280;29823;47.404;8.566;2023-04-03T07:03:09;96972.25;;;5.22;100.00
39243;BME280;29823;47.404;8.566;2023-04-03T07:05:37;96970.44;;;5.23;100.00
39243;BME280;29823;47.404;8.566;2023-04-03T07:08:06;96965.59;;;5.83;100.00
39243;BME280;29823;47.404;8.566;2023-04-03T07:10:34;96970.63;;;5.21;100.00
39243;BME280;29823;47.404;8.566;2023-04-03T07:13:02;96967.63;;;5.45;100.00
39243;BME280;29823;47.404;8.566;2023-04-03T07:15:30;96969.69;;;5.71;100.00
39243;BME280;29823;47.404;8.566;2023-04-03T07:18:00;96976.47;;;5.31;100.00
39243;BME280;29823;47.404;8.566;2023-04-03T07:20:28;96966.84;;;5.51;100.00
39243;BME280;29823;47.404;8.566;2023-04-03T07:22:55;96975.47;;;5.53;97.09
39243;BME280;29823;47.404;8.566;2023-04-03T07:25:23;96975.38;;;5.47;97.73
39243;BME280;29823;47.404;8.566;2023-04-03T07:27:51;96979.81;;;5.04;100.00
39243;BME280;29823;47.404;8.566;2023-04-03T07:30:20;96975.19;;;5.27;100.00
39243;BME280;29823;47.404;8.566;2023-04-03T07:32:49;96970.09;;;5.47;99.00
39243;BME280;29823;47.404;8.566;2023-04-03T07:35:19;96985.06;;;6.17;98.45
39243;BME280;29823;47.404;8.566;2023-04-03T07:37:47;96981.66;;;6.02;90.70
39243;BME280;29823;47.404;8.566;2023-04-03T07:40:15;96987.53;;;5.56;92.00
39243;BME280;29823;47.404;8.566;2023-04-03T07:42:45;96993.44;;;5.37;92.15
39243;BME280;29823;47.404;8.566;2023-04-03T07:45:13;96989.06;;;5.29;92.06
39243;BME280;29823;47.404;8.566;2023-04-03T07:47:41;96987.13;;;5.38;88.00
39243;BME280;29823;47.404;8.566;2023-04-03T07:50:09;96977.09;;;5.54;88.42
39243;BME280;29823;47.404;8.566;2023-04-03T07:52:38;96967.50;;;5.53;87.60
39243;BME280;29823;47.404;8.566;2023-04-03T07:55:07;96984.56;;;5.65;90.14
39243;BME280;29823;47.404;8.566;2023-04-03T07:57:36;96984.06;;;5.20;90.65
39243;BME280;29823;47.404;8.566;2023-04-03T08:00:05;96986.84;;;5.47;91.62
39243;BME280;29823;47.404;8.566;2023-04-03T08:02:33;96977.97;;;5.40;94.77
39243;BME280;29823;47.404;8.566;2023-04-03T08:05:01;96978.41;;;5.23;97.58
39243;BME280;29823;47.404;8.566;2023-04-03T08:07:29;96975.47;;;5.74;93.00
39243;BME280;29823;47.404;8.566;2023-04-03T08:09:58;96975.72;;;5.79;91.54
39243;BME280;29823;47.404;8.566;2023-04-03T08:12:26;96980.56;;;5.90;85.32
39243;BME280;29823;47.404;8.566;2023-04-03T08:14:55;96985.47;;;5.93;91.93
39243;BME280;29823;47.404;8.566;2023-04-03T08:17:22;96980.16;;;5.93;89.55
39243;BME280;29823;47.404;8.566;2023-04-03T08:19:50;96976.13;;;6.25;91.57
39243;BME280;29823;47.404;8.566;2023-04-03T08:22:18;96979.16;;;6.49;87.11
39243;BME280;29823;47.404;8.566;2023-04-03T08:24:46;96979.34;;;6.20;85.38
39243;BME280;29823;47.404;8.566;2023-04-03T08:27:27;96977.25;;;6.37;84.65
39243;BME280;29823;47.404;8.566;2023-04-03T08:29:55;96976.88;;;6.46;82.34
39243;BME280;29823;47.404;8.566;2023-04-03T08:32:24;96973.88;;;6.49;86.55
39243;BME280;29823;47.404;8.566;2023-04-03T08:34:52;96983.69;;;6.55;81.70
39243;BME280;29823;47.404;8.566;2023-04-03T08:37:20;96973.63;;;6.44;85.68
39243;BME280;29823;47.404;8.566;2023-04-03T08:39:48;96979.47;;;6.33;85.27
39243;BME280;29823;47.404;8.566;2023-04-03T08:42:27;96978.06;;;6.71;81.04
39243;BME280;29823;47.404;8.566;2023-04-03T08:45:08;96971.88;;;6.58;82.17
39243;BME280;29823;47.404;8.566;2023-04-03T08:47:42;96970.19;;;6.57;79.03
39243;BME280;29823;47.404;8.566;2023-04-03T08:50:12;96983.34;;;6.65;82.45
39243;BME280;29823;47.404;8.566;2023-04-03T08:52:44;96992.09;;;6.31;82.04
39243;BME280;29823;47.404;8.566;2023-04-03T08:55:22;96991.09;;;6.05;82.58
39243;BME280;29823;47.404;8.566;2023-04-03T08:57:58;96993.59;;;6.13;82.56
39243;BME280;29823;47.404;8.566;2023-04-03T09:00:43;96981.75;;;5.73;89.78
39243;BME280;29823;47.404;8.566;2023-04-03T09:03:14;96998.59;;;6.22;84.66
39243;BME280;29823;47.404;8.566;2023-04-03T09:05:46;96985.16;;;6.30;84.50
39243;BME280;29823;47.404;8.566;2023-04-03T09:08:22;96987.69;;;6.45;82.86
39243;BME280;29823;47.404;8.566;2023-04-03T09:10:54;96991.13;;;6.66;82.17
39243;BME280;29823;47.404;8.566;2023-04-03T09:13:30;96985.31;;;6.22;85.07
39243;BME280;29823;47.404;8.566;2023-04-03T09:16:05;96984.47;;;6.49;83.05
39243;BME280;29823;47.404;8.566;2023-04-03T09:18:44;96991.75;;;6.41;88.21
39243;BME280;29823;47.404;8.566;2023-04-03T09:21:19;96985.34;;;6.56;81.80
39243;BME280;29823;47.404;8.566;2023-04-03T09:23:50;96989.50;;;6.72;83.22
39243;BME280;29823;47.404;8.566;2023-04-03T09:26:23;96984.78;;;6.33;79.79
39243;BME280;29823;47.404;8.566;2023-04-03T09:28:55;96985.84;;;5.90;86.81
39243;BME280;29823;47.404;8.566;2023-04-03T09:31:36;96993.44;;;6.48;87.73
39243;BME280;29823;47.404;8.566;2023-04-03T09:34:11;96993.69;;;6.53;86.32
39243;BME280;29823;47.404;8.566;2023-04-03T09:36:43;96987.13;;;6.22;88.98
39243;BME280;29823;47.404;8.566;2023-04-03T09:39:14;96989.69;;;6.70;82.18
39243;BME280;29823;47.404;8.566;2023-04-03T09:41:55;96980.31;;;6.74;79.36
39243;BME280;29823;47.404;8.566;2023-04-03T09:44:26;96992.09;;;6.93;81.76
39243;BME280;29823;47.404;8.566;2023-04-03T09:46:56;97004.34;;;6.87;82.73
39243;BME280;29823;47.404;8.566;2023-04-03T09:49:24;96999.22;;;6.86;86.16
39243;BME280;29823;47.404;8.566;2023-04-03T09:51:52;96994.91;;;7.25;80.55
39243;BME280;29823;47.404;8.566;2023-04-03T09:54:26;97002.19;;;7.10;75.11
39243;BME280;29823;47.404;8.566;2023-04-03T09:57:01;96999.88;;;6.94;82.49
39243;BME280;29823;47.404;8.566;2023-04-03T09:59:32;96995.53;;;7.34;79.79
39243;BME280;29823;47.404;8.566;2023-04-03T10:02:03;96994.38;;;7.56;77.66
39243;BME280;29823;47.404;8.566;2023-04-03T10:04:38;96999.97;;;7.80;76.03
39243;BME280;29823;47.404;8.566;2023-04-03T10:07:29;97013.22;;;7.54;76.38
39243;BME280;29823;47.404;8.566;2023-04-03T10:09:58;97000.97;;;7.60;75.51
39243;BME280;29823;47.404;8.566;2023-04-03T10:12:26;96995.81;;;7.05;79.24
39243;BME280;29823;47.404;8.566;2023-04-03T10:14:55;96997.91;;;7.16;78.80
39243;BME280;29823;47.404;8.566;2023-04-03T10:17:36;97001.56;;;7.08;79.91
39243;BME280;29823;47.404;8.566;2023-04-03T10:20:16;96999.28;;;7.52;77.02
39243;BME280;29823;47.404;8.566;2023-04-03T10:22:59;96989.88;;;7.03;77.92
39243;BME280;29823;47.404;8.566;2023-04-03T10:25:33;96992.31;;;7.51;82.40
39243;BME280;29823;47.404;8.566;2023-04-03T10:28:05;96990.09;;;7.61;81.00
39243;BME280;29823;47.404;8.566;2023-04-03T10:30:42;96988.69;;;7.78;80.03
39243;BME280;29823;47.404;8.566;2023-04-03T10:33:29;96982.38;;;7.92;76.82
39243;BME280;29823;47.404;8.566;2023-04-03T10:36:09;96981.34;;;7.87;76.87
39243;BME280;29823;47.404;8.566;2023-04-03T10:38:45;96982.41;;;7.19;82.48
39243;BME280;29823;47.404;8.566;2023-04-03T10:41:17;96979.09;;;7.17;83.32
39243;BME280;29823;47.404;8.566;2023-04-03T10:43:56;96982.47;;;7.45;78.81
39243;BME280;29823;47.404;8.566;2023-04-03T10:46:30;96976.28;;;7.25;83.72
39243;BME280;29823;47.404;8.566;2023-04-03T10:49:10;96981.44;;;7.40;81.66
39243;BME280;29823;47.404;8.566;2023-04-03T10:51:44;96979.06;;;7.04;81.40
39243;BME280;29823;47.404;8.566;2023-04-03T10:54:17;96977.63;;;7.68;79.60
39243;BME280;29823;47.404;8.566;2023-04-03T10:56:52;96972.03;;;6.90;82.60
39243;BME280;29823;47.404;8.566;2023-04-03T10:59:41;96969.25;;;7.78;84.00
39243;BME280;29823;47.404;8.566;2023-04-03T11:02:16;96965.38;;;7.93;80.25
39243;BME280;29823;47.404;8.566;2023-04-03T11:04:51;96972.53;;;7.99;82.27
39243;BME280;29823;47.404;8.566;2023-04-03T11:07:22;96964.16;;;8.09;74.96
39243;BME280;29823;47.404;8.566;2023-04-03T11:09:54;96961.66;;;7.62;78.68
39243;BME280;29823;47.404;8.566;2023-04-03T11:12:25;96964.84;;;7.38;79.70
39243;BME280;29823;47.404;8.566;2023-04-03T11:14:56;96951.94;;;6.81;84.74
39243;BME280;29823;47.404;8.566;2023-04-03T11:17:29;96959.34;;;6.86;87.45
39243;BME280;29823;47.404;8.566;2023-04-03T11:20:04;96966.47;;;6.45;95.79
39243;BME280;29823;47.404;8.566;2023-04-03T11:22:38;96958.97;;;6.95;91.01
39243;BME280;29823;47.404;8.566;2023-04-03T11:25:18;96961.34;;;6.77;95.90
39243;BME280;29823;47.404;8.566;2023-04-03T11:27:52;96955.31;;;7.03;89.29
39243;BME280;29823;47.404;8.566;2023-04-03T11:30:25;96954.41;;;6.76;90.09
39243;BME280;29823;47.404;8.566;2023-04-03T11:33:21;96955.38;;;7.16;87.38
39243;BME280;29823;47.404;8.566;2023-04-03T11:35:56;96956.03;;;6.84;92.48
39243;BME280;29823;47.404;8.566;2023-04-03T11:38:28;96956.50;;;7.47;85.88
39243;BME280;29823;47.404;8.566;2023-04-03T11:40:58;96952.59;;;7.43;92.31
39243;BME280;29823;47.404;8.566;2023-04-03T11:43:28;96952.47;;;7.71;84.38
39243;BME280;29823;47.404;8.566;2023-04-03T11:45:58;96948.31;;;7.55;83.73
39243;BME280;29823;47.404;8.566;2023-04-03T11:48:47;96953.44;;;7.57;83.42
39243;BME280;29823;47.404;8.566;2023-04-03T11:51:42;96954.63;;;7.35;91.64
39243;BME280;29823;47.404;8.566;2023-04-03T11:54:47;96952.06;;;7.80;82.14
39243;BME280;29823;47.404;8.566;2023-04-03T11:57:44;96947.53;;;7.81;84.51
39243;BME280;29823;47.404;8.566;2023-04-03T12:00:48;96943.25;;;7.93;78.28
39243;BME280;29823;47.404;8.566;2023-04-03T12:06:51;96935.47;;;8.04;79.74
39243;BME280;29823;47.404;8.566;2023-04-03T12:12:27;96939.94;;;7.58;81.01
39243;BME280;29823;47.404;8.566;2023-04-03T12:14:55;96942.63;;;7.91;78.29
39243;BME280;29823;47.404;8.566;2023-04-03T12:17:38;96928.66;;;7.43;83.60
39243;BME280;29823;47.404;8.566;2023-04-03T12:23:23;96926.44;;;7.66;82.88
39243;BME280;29823;47.404;8.566;2023-04-03T12:25:51;96913.34;;;8.10;80.20
39243;BME280;29823;47.404;8.566;2023-04-03T12:28:28;96927.28;;;7.99;80.97
39243;BME280;29823;47.404;8.566;2023-04-03T12:30:56;96920.31;;;7.85;86.49
39243;BME280;29823;47.404;8.566;2023-04-03T12:33:32;96920.94;;;8.00;87.34
39243;BME280;29823;47.404;8.566;2023-04-03T12:36:08;96918.28;;;8.26;80.58
39243;BME280;29823;47.404;8.566;2023-04-03T12:39:01;96922.75;;;8.19;82.90
39243;BME280;29823;47.404;8.566;2023-04-03T12:41:37;96922.16;;;8.04;78.16
39243;BME280;29823;47.404;8.566;2023-04-03T12:44:20;96904.34;;;7.79;77.29
39243;BME280;29823;47.404;8.566;2023-04-03T12:46:53;96914.78;;;8.06;78.27
39243;BME280;29823;47.404;8.566;2023-04-03T12:49:33;96914.41;;;8.22;77.41
39243;BME280;29823;47.404;8.566;2023-04-03T12:52:17;96914.59;;;8.01;75.33
39243;BME280;29823;47.404;8.566;2023-04-03T12:54:48;96915.41;;;8.21;75.87
39243;BME280;29823;47.404;8.566;2023-04-03T12:57:18;96914.59;;;8.01;73.55
39243;BME280;29823;47.404;8.566;2023-04-03T12:59:46;96919.69;;;8.09;68.94
39243;BME280;29823;47.404;8.566;2023-04-03T13:02:21;96916.03;;;8.04;70.58
39243;BME280;29823;47.404;8.566;2023-04-03T13:04:52;96908.66;;;7.93;71.74
39243;BME280;29823;47.404;8.566;2023-04-03T13:07:22;96891.63;;;7.61;73.33
39243;BME280;29823;47.404;8.566;2023-04-03T13:10:00;96910.69;;;7.97;71.39
39243;BME280;29823;47.404;8.566;2023-04-03T13:12:28;96910.69;;;7.91;70.98
39243;BME280;29823;47.404;8.566;2023-04-03T13:14:59;96899.22;;;7.90;74.45
39243;BME280;29823;47.404;8.566;2023-04-03T13:17:27;96895.69;;;8.48;74.06
39243;BME280;29823;47.404;8.566;2023-04-03T13:20:10;96901.75;;;8.81;71.54
39243;BME280;29823;47.404;8.566;2023-04-03T13:22:40;96895.59;;;8.87;70.08
39243;BME280;29823;47.404;8.566;2023-04-03T13:25:14;96902.28;;;8.13;71.41
39243;BME280;29823;47.404;8.566;2023-04-03T13:27:43;96887.97;;;7.75;76.16
39243;BME280;29823;47.404;8.566;2023-04-03T13:30:27;96895.72;;;8.03;74.17
39243;BME280;29823;47.404;8.566;2023-04-03T13:32:59;96894.91;;;7.96;71.64
39243;BME280;29823;47.404;8.566;2023-04-03T13:35:34;96891.63;;;8.07;70.41